createdAt,value
2022-12-18T00:00:57.623Z,17.00
2022-12-18T00:03:29.190Z,17.00
2022-12-18T00:05:59.723Z,17.00
2022-12-18T00:08:30.285Z,17.00
2022-12-18T00:11:08.338Z,17.10
2022-12-18T00:13:39.281Z,17.10
2022-12-18T00:16:12.386Z,17.00
2022-12-18T00:18:44.387Z,17.20
2022-12-18T00:21:16.039Z,17.40
2022-12-18T00:23:47.481Z,17.40
2022-12-18T00:26:21.711Z,17.40
2022-12-18T00:28:56.167Z,17.50
2022-12-18T00:31:28.737Z,17.60
2022-12-18T00:34:00.533Z,17.50
2022-12-18T00:36:34.246Z,17.60
2022-12-18T00:39:07.669Z,17.70
2022-12-18T00:41:57.797Z,17.80
2022-12-18T00:44:28.590Z,17.90
2022-12-18T00:46:59.168Z,18.00
2022-12-18T00:49:29.604Z,18.00
2022-12-18T00:52:00.564Z,18.00
2022-12-18T00:54:31.613Z,18.00
2022-12-18T00:57:02.452Z,18.20
2022-12-18T00:59:33.214Z,18.30
2022-12-18T01:02:03.866Z,18.40
2022-12-18T01:04:37.756Z,18.40
2022-12-18T01:07:08.148Z,18.50
2022-12-18T01:09:40.269Z,18.60
2022-12-18T01:12:10.710Z,18.50
2022-12-18T01:14:41.886Z,18.40
2022-12-18T01:17:12.635Z,18.70
2022-12-18T01:19:43.287Z,18.70
2022-12-18T01:22:14.190Z,18.80
2022-12-18T01:24:45.266Z,18.90
2022-12-18T01:27:15.717Z,19.00
2022-12-18T01:29:46.177Z,19.10
2022-12-18T01:32:16.954Z,19.20
2022-12-18T01:34:47.780Z,19.40
2022-12-18T01:37:18.367Z,19.20
2022-12-18T01:39:48.806Z,19.20
2022-12-18T01:42:20.551Z,19.50
2022-12-18T01:45:30.883Z,19.80
2022-12-18T01:48:11.350Z,19.40
2022-12-18T01:50:45.906Z,19.50
2022-12-18T01:53:25.438Z,19.50
2022-12-18T01:55:59.884Z,19.50
2022-12-18T01:58:55.490Z,19.70
2022-12-18T02:01:27.988Z,19.70
2022-12-18T02:03:58.884Z,19.70
2022-12-18T02:06:38.031Z,20.10
2022-12-18T02:09:16.534Z,20.20
2022-12-18T02:12:26.239Z,20.00
2022-12-18T02:15:21.981Z,20.10
2022-12-18T02:18:20.922Z,20.30
2022-12-18T02:21:22.758Z,20.80
2022-12-18T02:24:15.865Z,20.70
2022-12-18T02:26:54.529Z,20.70
2022-12-18T02:29:35.741Z,20.80
2022-12-18T02:32:11.096Z,21.30
2022-12-18T02:34:43.748Z,21.00
2022-12-18T02:37:21.460Z,21.20
2022-12-18T02:39:55.698Z,21.40
2022-12-18T02:42:27.439Z,21.50
2022-12-18T02:44:58.346Z,21.50
2022-12-18T02:47:34.522Z,21.70
2022-12-18T02:50:25.596Z,21.60
2022-12-18T02:53:38.755Z,21.30
2022-12-18T02:56:34.393Z,21.60
2022-12-18T02:59:16.653Z,21.90
2022-12-18T03:02:20.187Z,22.10
2022-12-18T03:05:19.465Z,22.30
2022-12-18T03:08:06.048Z,22.10
2022-12-18T03:10:48.618Z,22.60
2022-12-18T03:13:38.527Z,22.60
2022-12-18T03:16:15.448Z,22.60
2022-12-18T03:18:56.895Z,22.40
2022-12-18T03:21:36.868Z,22.70
2022-12-18T03:24:10.141Z,22.80
2022-12-18T03:26:45.977Z,22.70
2022-12-18T03:29:36.500Z,22.90
2022-12-18T03:32:30.760Z,22.80
2022-12-18T03:35:07.443Z,23.10
2022-12-18T03:37:41.076Z,23.00
2022-12-18T03:40:13.770Z,23.20
2022-12-18T03:43:05.951Z,23.60
2022-12-18T03:45:41.093Z,23.50
2022-12-18T03:48:40.236Z,23.60
2022-12-18T03:51:20.798Z,23.80
2022-12-18T03:54:04.893Z,23.70
2022-12-18T03:56:45.614Z,23.80
2022-12-18T03:59:19.196Z,23.50
2022-12-18T04:01:52.196Z,23.30
2022-12-18T04:04:24.687Z,23.10
2022-12-18T04:06:56.566Z,23.80
2022-12-18T04:09:28.842Z,23.70
2022-12-18T04:11:59.641Z,23.40
2022-12-18T04:14:31.238Z,23.80
2022-12-18T04:17:02.013Z,23.80
2022-12-18T04:19:35.090Z,23.80
2022-12-18T04:22:07.127Z,23.90
2022-12-18T04:24:44.614Z,24.30
2022-12-18T04:27:23.346Z,24.50
2022-12-18T04:29:54.943Z,24.50
2022-12-18T04:32:25.924Z,24.40
2022-12-18T04:34:56.371Z,24.50
2022-12-18T04:37:26.988Z,24.50
2022-12-18T04:39:57.904Z,24.50
2022-12-18T04:42:36.200Z,25.00
2022-12-18T04:45:07.605Z,25.30
2022-12-18T04:47:38.090Z,25.10
2022-12-18T04:50:09.424Z,24.70
2022-12-18T04:52:39.668Z,25.20
2022-12-18T04:55:10.603Z,25.30
2022-12-18T04:57:41.460Z,24.90
2022-12-18T05:00:12.869Z,24.80
2022-12-18T05:02:43.777Z,24.40
2022-12-18T05:05:14.564Z,24.80
2022-12-18T05:07:45.316Z,25.40
2022-12-18T05:10:16.440Z,24.90
2022-12-18T05:13:06.360Z,24.80
2022-12-18T05:15:37.743Z,25.20
2022-12-18T05:18:08.245Z,25.00
2022-12-18T05:20:38.326Z,25.00
2022-12-18T05:23:08.289Z,25.20
2022-12-18T05:25:38.489Z,25.00
2022-12-18T05:28:08.837Z,25.30
2022-12-18T05:30:38.885Z,24.60
2022-12-18T05:33:09.214Z,25.00
2022-12-18T05:35:39.631Z,24.90
2022-12-18T05:38:09.987Z,25.30
2022-12-18T05:40:40.186Z,25.30
2022-12-18T05:43:10.483Z,25.50
2022-12-18T05:48:17.513Z,25.50
2022-12-18T05:50:49.915Z,25.80
2022-12-18T05:53:22.829Z,25.80
2022-12-18T05:55:52.870Z,25.90
2022-12-18T05:58:22.909Z,25.80
2022-12-18T06:00:53.304Z,26.10
2022-12-18T06:03:25.155Z,26.40
2022-12-18T06:05:59.069Z,26.10
2022-12-18T06:08:29.218Z,25.90
2022-12-18T06:10:59.841Z,26.00
2022-12-18T06:13:30.223Z,26.50
2022-12-18T06:16:00.714Z,26.80
2022-12-18T06:18:31.177Z,26.60
2022-12-18T06:21:02.973Z,26.50
2022-12-18T06:23:33.434Z,26.60
2022-12-18T06:26:08.125Z,26.70
2022-12-18T06:28:38.698Z,26.90
2022-12-18T06:31:10.508Z,27.00
2022-12-18T06:33:41.677Z,26.70
2022-12-18T06:36:16.103Z,26.60
2022-12-18T06:38:47.505Z,26.70
2022-12-18T06:41:20.240Z,26.60
2022-12-18T06:43:50.657Z,26.60
2022-12-18T06:46:21.577Z,26.70
2022-12-18T06:48:53.183Z,26.60
2022-12-18T06:51:25.596Z,26.80
2022-12-18T06:53:56.035Z,27.00
2022-12-18T06:56:26.385Z,26.80
2022-12-18T06:58:56.405Z,26.60
2022-12-18T07:01:27.758Z,26.30
2022-12-18T07:03:59.536Z,26.80
2022-12-18T07:06:30.432Z,26.70
2022-12-18T07:09:01.244Z,26.70
2022-12-18T07:11:31.953Z,26.70
2022-12-18T07:14:02.441Z,26.90
2022-12-18T07:16:33.081Z,26.40
2022-12-18T07:19:03.440Z,26.60
2022-12-18T07:24:04.758Z,26.40
2022-12-18T07:26:34.853Z,26.80
2022-12-18T07:31:36.310Z,26.90
2022-12-18T07:36:37.524Z,27.40
2022-12-18T07:39:07.852Z,27.30
2022-12-18T07:41:40.276Z,26.90
2022-12-18T07:44:14.717Z,26.70
2022-12-18T07:46:45.498Z,26.50
2022-12-18T07:49:16.122Z,26.50
2022-12-18T07:51:48.509Z,26.50
2022-12-18T07:54:19.284Z,26.60
2022-12-18T07:56:49.949Z,26.50
2022-12-18T07:59:20.986Z,26.50
2022-12-18T08:01:51.555Z,26.00
2022-12-18T08:29:46.659Z,26.50
2022-12-18T08:45:09.481Z,26.20
2022-12-18T08:47:39.945Z,25.80
2022-12-18T08:50:13.706Z,26.00
2022-12-18T08:52:43.979Z,26.30
2022-12-18T08:55:14.531Z,26.20
2022-12-18T08:57:44.882Z,26.20
2022-12-18T09:00:16.338Z,25.80
2022-12-18T09:02:47.095Z,25.60
2022-12-18T09:05:17.555Z,25.60
2022-12-18T09:07:47.696Z,25.50
2022-12-18T09:10:17.964Z,25.60
2022-12-18T09:12:49.046Z,25.60
2022-12-18T09:15:19.852Z,25.60
2022-12-18T09:17:52.448Z,25.60
2022-12-18T09:20:22.991Z,25.70
2022-12-18T09:22:53.725Z,25.40
2022-12-18T09:25:24.412Z,25.20
2022-12-18T09:27:55.605Z,25.10
2022-12-18T09:30:25.896Z,25.20
2022-12-18T09:32:59.474Z,25.20
2022-12-18T09:35:30.365Z,25.10
2022-12-18T09:38:00.962Z,24.70
2022-12-18T09:40:37.696Z,24.80
2022-12-18T09:43:09.534Z,24.80
2022-12-18T09:45:49.039Z,24.80
2022-12-18T09:48:39.107Z,24.80
2022-12-18T09:51:36.633Z,24.80
2022-12-18T09:54:15.449Z,24.80
2022-12-18T09:56:47.745Z,24.60
2022-12-18T09:59:34.139Z,24.50
2022-12-18T10:02:17.853Z,24.10
2022-12-18T10:05:03.381Z,23.90
2022-12-18T10:08:13.754Z,24.00
2022-12-18T10:10:54.573Z,23.90
2022-12-18T10:13:49.638Z,23.70
2022-12-18T10:16:59.081Z,23.90
2022-12-18T10:19:54.986Z,23.90
2022-12-18T10:22:56.573Z,23.90
2022-12-18T10:26:04.803Z,23.70
2022-12-18T10:28:38.499Z,23.80
2022-12-18T10:31:21.808Z,23.90
2022-12-18T10:33:57.714Z,24.10
2022-12-18T10:36:30.065Z,23.80
2022-12-18T10:39:22.774Z,23.80
2022-12-18T10:41:54.411Z,23.60
2022-12-18T10:44:28.311Z,23.40
2022-12-18T10:47:11.777Z,23.50
2022-12-18T10:49:50.929Z,23.60
2022-12-18T10:52:24.695Z,23.50
2022-12-18T10:55:00.870Z,23.30
2022-12-18T10:57:39.409Z,23.40
2022-12-18T11:00:31.156Z,23.20
2022-12-18T11:03:02.864Z,23.10
2022-12-18T11:05:39.561Z,22.90
2022-12-18T11:08:27.047Z,22.90
2022-12-18T11:10:58.214Z,23.00
2022-12-18T11:13:31.601Z,23.00
2022-12-18T11:16:02.980Z,23.10
2022-12-18T11:18:38.859Z,22.90
2022-12-18T11:21:15.228Z,22.80
2022-12-18T11:23:54.109Z,22.70
2022-12-18T11:26:36.247Z,22.70
2022-12-18T11:29:19.798Z,22.70
2022-12-18T11:53:05.816Z,22.60
2022-12-18T12:20:39.879Z,22.30
2022-12-18T12:23:46.616Z,21.60
2022-12-18T12:26:38.874Z,21.50
2022-12-18T12:29:42.231Z,21.70
2022-12-18T12:32:51.500Z,21.40
2022-12-18T12:35:54.085Z,21.30
2022-12-18T12:38:38.330Z,21.30
2022-12-18T12:41:32.028Z,21.30
2022-12-18T12:44:07.609Z,21.60
2022-12-18T12:46:42.521Z,21.70
2022-12-18T12:49:32.220Z,21.70
2022-12-18T12:52:15.645Z,21.60
2022-12-18T12:54:47.635Z,21.50
